Time;durP1;ratioP1;P1;durP2;ratioP2;P2;SDS_P1;SDS_P2;PMS_P1;PMS_P2;Temp;Humidity;BMP_temperature;BMP_pressure;BME280_temperature;BME280_humidity;BME280_pressure;Samples;Min_cycle;Max_cycle;Signal;HPM_P1;HPM_P2
2022/09/01 04:00:31;;;;;;;24.97;20.20;;;16.50;99.90;;;;;;5991200;23;20394;-75
2022/09/01 04:02:59;;;;;;;27.03;20.00;;;16.40;99.90;;;;;;4987932;28;20446;-75
2022/09/01 04:05:27;;;;;;;29.07;21.30;;;16.40;99.90;;;;;;4987307;28;20506;-75
2022/09/01 04:07:56;;;;;;;27.43;20.40;;;16.40;99.90;;;;;;4987650;28;20452;-75
2022/09/01 04:10:23;;;;;;;31.10;21.67;;;16.30;99.90;;;;;;4987402;28;20464;-75
2022/09/01 04:12:50;;;;;;;33.20;20.57;;;16.30;99.90;;;;;;4987181;28;21220;-75
2022/09/01 04:15:18;;;;;;;28.83;21.90;;;16.30;99.90;;;;;;4986926;28;20467;-75
2022/09/01 04:18:08;;;;;;;31.30;21.57;;;16.30;99.90;;;;;;4987435;28;20475;-75
2022/09/01 04:20:47;;;;;;;27.17;20.10;;;16.30;99.90;;;;;;4987178;28;20972;-75
2022/09/01 04:23:24;;;;;;;29.10;20.20;;;16.40;99.90;;;;;;4987201;28;20827;-75
2022/09/01 04:25:52;;;;;;;31.67;21.50;;;16.40;99.90;;;;;;4987125;28;20518;-75
2022/09/01 04:28:23;;;;;;;33.20;21.17;;;16.40;99.90;;;;;;4987519;28;20526;-75
2022/09/01 04:30:55;;;;;;;31.70;21.80;;;16.40;99.90;;;;;;4986788;28;20507;-75
2022/09/01 04:33:25;;;;;;;28.30;21.40;;;16.30;99.90;;;;;;4987172;28;20547;-76
2022/09/01 04:35:53;;;;;;;28.17;20.10;;;16.40;99.90;;;;;;4986486;28;20455;-76
2022/09/01 04:38:21;;;;;;;32.47;22.30;;;16.40;99.90;;;;;;4986958;28;20634;-75
2022/09/01 04:40:49;;;;;;;30.70;21.00;;;16.40;99.90;;;;;;4987264;28;20562;-76
2022/09/01 04:43:16;;;;;;;32.63;21.90;;;16.40;99.90;;;;;;4987348;28;20466;-76
2022/09/01 04:45:45;;;;;;;30.50;20.57;;;16.40;99.90;;;;;;4986451;28;20964;-76
2022/09/01 04:48:12;;;;;;;31.53;21.00;;;16.50;99.90;;;;;;4987339;28;20470;-76
2022/09/01 04:50:41;;;;;;;31.67;20.57;;;16.50;99.90;;;;;;4987406;28;20479;-76
2022/09/01 04:53:10;;;;;;;31.20;21.77;;;16.50;99.90;;;;;;4987134;28;20459;-76
2022/09/01 04:55:42;;;;;;;29.73;21.27;;;16.50;99.90;;;;;;4986689;28;20487;-76
2022/09/01 04:58:11;;;;;;;30.33;21.63;;;16.50;99.90;;;;;;4986041;28;20447;-76
2022/09/01 05:00:39;;;;;;;28.00;19.70;;;16.50;99.90;;;;;;4986617;28;20483;-76
2022/09/01 05:03:08;;;;;;;27.63;18.70;;;16.60;99.90;;;;;;4986173;28;20828;-75
2022/09/01 05:05:41;;;;;;;37.50;21.67;;;16.60;99.90;;;;;;4985391;28;20541;-76
2022/09/01 05:08:12;;;;;;;34.10;21.20;;;16.70;99.90;;;;;;4986810;28;20926;-76
2022/09/01 05:10:41;;;;;;;26.43;19.00;;;16.70;99.90;;;;;;4986271;28;20483;-76
2022/09/01 05:13:08;;;;;;;27.43;19.80;;;16.70;99.90;;;;;;4986771;28;20491;-76
2022/09/01 05:15:37;;;;;;;24.87;18.10;;;16.70;99.90;;;;;;4986210;28;20451;-76
2022/09/01 05:18:08;;;;;;;29.37;20.07;;;16.80;99.90;;;;;;4986910;28;20463;-76
2022/09/01 05:20:40;;;;;;;31.60;20.47;;;16.80;99.90;;;;;;4986971;28;20483;-76
2022/09/01 05:23:11;;;;;;;30.30;21.67;;;16.80;99.90;;;;;;4986914;28;20502;-70
2022/09/01 05:25:40;;;;;;;28.90;20.10;;;16.80;99.90;;;;;;4985569;28;20991;-68
2022/09/01 05:28:11;;;;;;;31.23;22.30;;;16.80;99.90;;;;;;4985945;28;20518;-69
2022/09/01 05:30:39;;;;;;;29.93;21.13;;;16.80;99.90;;;;;;4986113;28;20575;-68
2022/09/01 05:33:10;;;;;;;27.73;20.33;;;16.90;99.90;;;;;;4986420;28;20585;-68
2022/09/01 05:35:42;;;;;;;31.40;21.77;;;16.90;99.90;;;;;;4985823;28;20440;-69
2022/09/01 05:38:12;;;;;;;29.13;20.70;;;16.90;99.90;;;;;;4986511;28;20502;-68
2022/09/01 05:40:40;;;;;;;30.90;21.60;;;16.90;99.90;;;;;;4986242;28;20599;-68
2022/09/01 05:43:11;;;;;;;30.23;21.17;;;16.90;99.90;;;;;;4986948;28;20463;-81
2022/09/01 05:45:44;;;;;;;31.37;21.30;;;16.90;99.90;;;;;;4993541;28;20528;-81
2022/09/01 05:48:16;;;;;;;27.70;20.87;;;17.00;99.90;;;;;;4991337;28;20468;-81
2022/09/01 05:50:44;;;;;;;25.70;19.30;;;17.00;99.90;;;;;;4991052;28;20511;-81
2022/09/01 05:53:16;;;;;;;29.63;21.83;;;17.00;99.90;;;;;;4991780;28;20794;-81
2022/09/01 05:55:43;;;;;;;29.50;21.37;;;17.00;99.90;;;;;;4994854;28;20448;-81
2022/09/01 05:58:12;;;;;;;31.63;21.37;;;17.10;99.90;;;;;;4998144;28;20467;-81
2022/09/01 06:00:40;;;;;;;28.90;21.30;;;17.10;99.90;;;;;;5000988;28;20499;-81
2022/09/01 06:03:08;;;;;;;28.67;20.73;;;17.10;99.90;;;;;;4993946;28;20514;-81
2022/09/01 06:05:35;;;;;;;26.37;18.70;;;17.20;99.90;;;;;;4993667;28;20684;-81
2022/09/01 06:08:03;;;;;;;28.90;19.80;;;17.20;99.90;;;;;;4996436;28;20468;-81
2022/09/01 06:10:34;;;;;;;24.93;19.57;;;17.20;99.90;;;;;;5003107;28;20456;-81
2022/09/01 06:13:01;;;;;;;25.00;18.83;;;17.20;99.90;;;;;;5014540;28;20454;-81
2022/09/01 06:15:29;;;;;;;29.53;20.67;;;17.20;99.90;;;;;;5014530;28;20478;-81
2022/09/01 06:17:56;;;;;;;29.53;22.20;;;17.30;99.90;;;;;;5015084;28;20459;-81
2022/09/01 06:20:23;;;;;;;30.47;19.43;;;17.20;99.90;;;;;;5014686;28;20594;-81
2022/09/01 06:22:51;;;;;;;25.00;18.37;;;17.20;99.90;;;;;;5011512;28;20519;-81
2022/09/01 06:25:18;;;;;;;27.27;20.20;;;17.20;99.90;;;;;;4990834;28;20834;-81
2022/09/01 06:27:51;;;;;;;25.63;19.53;;;17.20;99.90;;;;;;4992781;28;20460;-81
2022/09/01 06:30:25;;;;;;;28.13;19.67;;;17.20;99.90;;;;;;4991720;28;20463;-81
2022/09/01 06:32:52;;;;;;;35.07;22.23;;;17.20;99.90;;;;;;4991088;28;20524;-81
2022/09/01 06:35:20;;;;;;;30.13;19.80;;;17.20;99.90;;;;;;4990642;28;20470;-81
2022/09/01 06:37:47;;;;;;;28.00;19.90;;;17.20;99.90;;;;;;4990974;28;20459;-81
2022/09/01 06:40:16;;;;;;;29.20;20.20;;;17.20;99.90;;;;;;4990862;28;20502;-81
2022/09/01 06:42:46;;;;;;;27.90;19.93;;;17.30;99.90;;;;;;4991351;28;20459;-81
2022/09/01 06:45:15;;;;;;;26.20;19.20;;;17.30;99.90;;;;;;4990542;28;20460;-81
2022/09/01 06:47:43;;;;;;;24.77;17.93;;;17.30;99.90;;;;;;4991379;28;20554;-81
2022/09/01 06:50:14;;;;;;;23.80;18.80;;;17.30;99.90;;;;;;4990951;28;20918;-81
2022/09/01 06:52:41;;;;;;;23.20;17.67;;;17.40;99.90;;;;;;4992250;28;20467;-81
2022/09/01 06:55:10;;;;;;;25.53;18.40;;;17.40;99.90;;;;;;4991220;28;20479;-81
2022/09/01 06:57:37;;;;;;;25.37;18.67;;;17.50;99.90;;;;;;4990411;28;20485;-81
2022/09/01 07:00:16;;;;;;;25.47;16.87;;;17.50;99.90;;;;;;4990841;28;20983;-81
2022/09/01 07:02:44;;;;;;;24.50;17.77;;;17.60;99.90;;;;;;4991023;28;20490;-81
2022/09/01 07:05:16;;;;;;;23.63;17.60;;;17.60;99.90;;;;;;4990944;28;20458;-81
2022/09/01 07:07:50;;;;;;;20.90;17.43;;;17.60;99.90;;;;;;4990642;28;20442;-81
2022/09/01 07:10:21;;;;;;;19.83;15.67;;;17.70;99.90;;;;;;4991034;28;20452;-81
2022/09/01 07:12:48;;;;;;;22.20;16.77;;;17.70;99.90;;;;;;4991172;28;20470;-81
2022/09/01 07:15:16;;;;;;;22.10;16.00;;;17.80;99.90;;;;;;4990218;28;20455;-81
2022/09/01 07:17:50;;;;;;;21.37;15.40;;;17.80;99.90;;;;;;4990703;28;20486;-81
2022/09/01 07:20:18;;;;;;;19.87;15.47;;;17.80;99.90;;;;;;4989892;28;20518;-81
2022/09/01 07:22:45;;;;;;;19.30;15.57;;;17.90;99.90;;;;;;4990803;28;20467;-81
2022/09/01 07:25:11;;;;;;;21.60;15.23;;;17.90;99.90;;;;;;4990157;28;20506;-81
2022/09/01 07:27:39;;;;;;;19.90;15.00;;;17.90;99.90;;;;;;4990376;28;21014;-81
2022/09/01 07:30:09;;;;;;;22.27;14.87;;;18.00;99.90;;;;;;4991436;28;20479;-81
2022/09/01 07:32:38;;;;;;;17.80;12.87;;;18.10;99.90;;;;;;4991332;28;20470;-81
2022/09/01 07:35:07;;;;;;;14.80;12.43;;;18.10;99.90;;;;;;4991128;28;20459;-81
2022/09/01 07:37:36;;;;;;;15.43;11.43;;;18.20;99.90;;;;;;4991473;28;20868;-81
2022/09/01 07:40:05;;;;;;;13.03;10.67;;;18.20;99.90;;;;;;4991529;28;20504;-81
2022/09/01 07:42:33;;;;;;;12.07;10.27;;;18.20;99.90;;;;;;4991334;28;20899;-81
2022/09/01 07:45:00;;;;;;;12.40;10.30;;;18.30;99.90;;;;;;4991920;28;20547;-81
2022/09/01 07:47:28;;;;;;;10.17;8.90;;;18.40;99.90;;;;;;4992259;28;20892;-81
2022/09/01 07:49:55;;;;;;;12.23;9.07;;;18.40;99.90;;;;;;4992119;28;20460;-82
2022/09/01 07:52:24;;;;;;;11.20;9.30;;;18.40;99.90;;;;;;4991875;28;20538;-81
2022/09/01 07:54:51;;;;;;;10.57;8.87;;;18.50;99.90;;;;;;4990938;28;20460;-81
2022/09/01 07:57:18;;;;;;;10.87;9.40;;;18.50;99.90;;;;;;4992346;28;20513;-81
2022/09/01 07:59:45;;;;;;;13.13;8.73;;;18.60;99.90;;;;;;4991067;28;20503;-81
2022/09/01 08:02:12;;;;;;;11.10;8.60;;;18.60;99.90;;;;;;4990887;28;20487;-81
2022/09/01 08:04:38;;;;;;;9.23;8.30;;;18.70;99.90;;;;;;4990232;28;20472;-81
2022/09/01 08:07:06;;;;;;;10.60;8.27;;;18.80;99.90;;;;;;4990698;28;20555;-81
2022/09/01 08:09:37;;;;;;;10.70;8.10;;;18.80;99.90;;;;;;4990991;28;20462;-81
2022/09/01 08:12:04;;;;;;;8.70;7.70;;;18.90;99.90;;;;;;4990374;28;20555;-81
2022/09/01 08:14:31;;;;;;;8.47;7.60;;;18.90;99.90;;;;;;4989942;28;20739;-81
2022/09/01 08:16:58;;;;;;;8.73;6.60;;;19.00;99.90;;;;;;4990375;28;20548;-81
2022/09/01 08:19:25;;;;;;;7.90;7.10;;;19.00;99.90;;;;;;4989934;28;20594;-81
2022/09/01 08:21:52;;;;;;;7.97;7.17;;;19.10;99.90;;;;;;4990428;28;20479;-81
2022/09/01 08:24:19;;;;;;;8.50;7.70;;;19.20;99.90;;;;;;4989950;28;20839;-81
2022/09/01 08:26:47;;;;;;;7.33;6.63;;;19.20;99.90;;;;;;4990583;28;20471;-81
2022/09/01 08:29:14;;;;;;;7.93;6.60;;;19.30;99.90;;;;;;4990494;28;20558;-81
2022/09/01 08:31:41;;;;;;;7.77;6.47;;;19.40;99.90;;;;;;4990013;28;20487;-81
2022/09/01 08:34:11;;;;;;;7.70;6.57;;;19.40;99.90;;;;;;4990442;28;20478;-81
2022/09/01 08:36:38;;;;;;;9.37;6.77;;;19.50;99.90;;;;;;4990788;28;20555;-82
2022/09/01 08:39:05;;;;;;;8.23;6.37;;;19.50;99.90;;;;;;4990639;28;20466;-82
2022/09/01 08:41:43;;;;;;;7.90;7.10;;;19.60;99.90;;;;;;4989957;28;20495;-81
2022/09/01 08:44:21;;;;;;;6.90;6.00;;;19.70;99.90;;;;;;4990040;28;20923;-81
2022/09/01 08:46:55;;;;;;;6.33;5.73;;;19.70;99.90;;;;;;4991078;28;20452;-81
2022/09/01 08:49:24;;;;;;;5.97;5.10;;;19.70;99.90;;;;;;4990833;28;20534;-81
2022/09/01 08:51:56;;;;;;;6.57;5.97;;;19.70;99.90;;;;;;4990895;28;20486;-82
2022/09/01 08:54:27;;;;;;;7.97;5.50;;;19.80;99.90;;;;;;4990197;28;21298;-82
2022/09/01 08:56:57;;;;;;;5.90;5.30;;;19.90;99.90;;;;;;4990694;28;20454;-81
2022/09/01 08:59:26;;;;;;;5.67;5.10;;;20.00;99.90;;;;;;4990541;28;20470;-81
2022/09/01 09:02:00;;;;;;;7.90;5.10;;;20.10;99.90;;;;;;4990572;28;20874;-82
2022/09/01 09:04:48;;;;;;;6.93;6.23;;;20.10;99.90;;;;;;4989372;28;20945;-81
2022/09/01 09:07:24;;;;;;;6.70;6.00;;;20.10;99.90;;;;;;4990296;28;20470;-81
2022/09/01 09:09:58;;;;;;;6.60;6.00;;;20.10;99.90;;;;;;4990452;28;20463;-81
2022/09/01 09:12:39;;;;;;;9.50;7.43;;;20.00;99.90;;;;;;4990243;28;20490;-81
2022/09/01 09:15:17;;;;;;;7.87;6.47;;;19.90;99.90;;;;;;4989777;28;20483;-81
2022/09/01 09:17:52;;;;;;;8.03;7.20;;;19.90;99.90;;;;;;4990159;28;20491;-81
2022/09/01 09:20:19;;;;;;;7.20;6.50;;;20.00;99.90;;;;;;4990386;28;20510;-81
2022/09/01 09:22:48;;;;;;;7.20;6.20;;;19.90;99.90;;;;;;4990111;28;20466;-81
2022/09/01 09:25:17;;;;;;;7.10;6.10;;;20.00;99.90;;;;;;4989636;28;20967;-82
2022/09/01 09:27:45;;;;;;;6.20;5.60;;;20.00;99.90;;;;;;4990770;28;20531;-81
2022/09/01 09:30:19;;;;;;;5.83;5.33;;;20.10;99.90;;;;;;4990273;28;20459;-81
2022/09/01 09:32:49;;;;;;;5.00;4.30;;;20.10;99.90;;;;;;4990494;28;20477;-81
2022/09/01 09:35:26;;;;;;;4.87;4.37;;;20.20;99.90;;;;;;4991863;28;20467;-81
2022/09/01 09:37:53;;;;;;;4.23;3.83;;;20.20;99.90;;;;;;4991877;28;20831;-80
2022/09/01 09:40:23;;;;;;;5.70;4.10;;;20.30;99.90;;;;;;4991065;28;20488;-81
2022/09/01 09:43:02;;;;;;;6.63;4.47;;;20.40;99.90;;;;;;4992985;28;20463;-81
2022/09/01 09:45:33;;;;;;;4.90;4.40;;;20.50;99.90;;;;;;4990846;28;20470;-81
2022/09/01 09:48:04;;;;;;;5.30;4.20;;;20.50;99.90;;;;;;4992430;28;20463;-81
2022/09/01 09:50:34;;;;;;;6.40;5.43;;;20.70;99.90;;;;;;4992546;28;20975;-81
2022/09/01 09:53:14;;;;;;;5.90;5.30;;;20.80;99.90;;;;;;4992276;28;20960;-81
2022/09/01 09:55:57;;;;;;;6.50;5.90;;;20.80;99.90;;;;;;4991705;28;21252;-81
2022/09/01 09:58:27;;;;;;;6.20;5.70;;;20.90;99.90;;;;;;4992637;28;21014;-81
2022/09/01 10:01:08;;;;;;;6.40;5.50;;;20.90;99.90;;;;;;4992100;28;20503;-81
2022/09/01 10:03:44;;;;;;;7.90;5.80;;;21.10;99.90;;;;;;4992230;28;20546;-81
2022/09/01 10:06:14;;;;;;;6.60;5.60;;;21.10;99.90;;;;;;4991188;28;20467;-81
2022/09/01 10:08:46;;;;;;;6.30;5.30;;;21.30;99.90;;;;;;4992432;28;20459;-81
2022/09/01 10:11:27;;;;;;;5.73;5.23;;;21.40;99.90;;;;;;4992154;28;20551;-81
2022/09/01 10:13:54;;;;;;;6.17;5.53;;;21.30;99.90;;;;;;4992614;28;20455;-81
2022/09/01 10:16:28;;;;;;;9.10;5.20;;;21.30;99.90;;;;;;4992059;28;20448;-81
2022/09/01 10:18:59;;;;;;;7.57;5.60;;;21.50;99.90;;;;;;4992074;28;20502;-81
2022/09/01 10:21:31;;;;;;;5.83;4.53;;;21.60;99.90;;;;;;4992881;28;20569;-81
2022/09/01 10:23:59;;;;;;;4.93;4.43;;;21.70;99.90;;;;;;4994018;28;20464;-81
2022/09/01 10:26:33;;;;;;;5.63;4.60;;;21.90;99.90;;;;;;4993652;28;20456;-81
2022/09/01 10:29:07;;;;;;;6.13;5.53;;;22.00;99.90;;;;;;4994152;28;20507;-82
2022/09/01 10:31:36;;;;;;;5.10;4.60;;;22.00;99.90;;;;;;4992239;28;20509;-82
2022/09/01 10:34:05;;;;;;;6.13;4.20;;;22.10;99.90;;;;;;4993388;28;20590;-82
2022/09/01 10:36:34;;;;;;;7.33;5.00;;;22.20;99.90;;;;;;4993523;28;20460;-82
2022/09/01 10:39:01;;;;;;;5.27;4.50;;;22.30;99.90;;;;;;4993395;28;20459;-82
2022/09/01 10:41:50;;;;;;;5.37;4.87;;;22.50;99.90;;;;;;4992954;28;20498;-83
2022/09/01 10:44:24;;;;;;;7.53;3.97;;;22.90;99.90;;;;;;4993219;28;20466;-83
2022/09/01 10:46:52;;;;;;;5.13;4.00;;;23.00;99.90;;;;;;4994332;28;20456;-83
2022/09/01 10:49:42;;;;;;;5.43;4.10;;;23.70;99.90;;;;;;4994710;28;20483;-82
2022/09/01 10:52:09;;;;;;;4.30;3.93;;;24.40;99.90;;;;;;4993778;28;20482;-82
2022/09/01 10:54:55;;;;;;;4.60;4.17;;;24.20;99.90;;;;;;4993186;28;20494;-82
2022/09/01 10:57:39;;;;;;;4.50;4.10;;;24.10;99.90;;;;;;4996357;28;20451;-83
2022/09/01 11:00:46;;;;;;;4.93;4.53;;;24.30;99.90;;;;;;4997379;28;20463;-82
2022/09/01 11:03:35;;;;;;;4.63;4.23;;;24.80;99.90;;;;;;4997865;28;20502;-82
2022/09/01 11:06:04;;;;;;;4.53;4.10;;;24.90;99.90;;;;;;4996897;28;20481;-82
2022/09/01 11:08:47;;;;;;;5.13;4.37;;;25.30;99.90;;;;;;4998198;28;20460;-82
2022/09/01 11:11:29;;;;;;;4.63;4.23;;;25.40;99.90;;;;;;4998650;28;20478;-83
2022/09/01 11:13:58;;;;;;;4.00;3.60;;;25.40;99.90;;;;;;4998289;28;20450;-82
2022/09/01 11:16:31;;;;;;;4.43;4.10;;;25.60;99.90;;;;;;4998072;28;20460;-83
2022/09/01 11:19:37;;;;;;;5.10;4.10;;;25.50;99.90;;;;;;4998879;28;20454;-82
2022/09/01 11:22:13;;;;;;;4.13;3.73;;;25.30;99.90;;;;;;4941958;28;20593;-83
2022/09/01 11:24:52;;;;;;;4.57;4.10;;;25.30;99.90;;;;;;4997499;28;20463;-83
2022/09/01 11:27:57;;;;;;;4.43;4.00;;;25.20;99.90;;;;;;4997836;28;20459;-82
2022/09/01 11:30:33;;;;;;;4.60;4.10;;;25.20;99.90;;;;;;4995929;28;20463;-82
2022/09/01 11:33:21;;;;;;;4.03;3.60;;;25.10;99.90;;;;;;4996702;28;20465;-82
2022/09/01 11:35:57;;;;;;;4.00;3.70;;;25.00;99.90;;;;;;4996710;28;20529;-82
2022/09/01 11:38:27;;;;;;;4.80;4.20;;;24.90;99.90;;;;;;4996733;28;20462;-82
2022/09/01 11:40:56;;;;;;;4.27;3.87;;;24.80;99.90;;;;;;4996039;28;20499;-82
2022/09/01 11:43:24;;;;;;;4.47;4.10;;;24.80;99.90;;;;;;4996527;28;20491;-82
2022/09/01 11:46:02;;;;;;;4.00;3.60;;;24.80;99.90;;;;;;4996423;28;20854;-82
2022/09/01 11:48:29;;;;;;;4.23;3.83;;;24.90;99.90;;;;;;4996460;28;20539;-82
2022/09/01 11:51:00;;;;;;;4.67;4.27;;;24.80;99.90;;;;;;4996230;28;20480;-82
2022/09/01 11:53:28;;;;;;;4.77;4.27;;;24.80;99.90;;;;;;4996112;28;20454;-82
2022/09/01 11:56:10;;;;;;;4.23;3.83;;;24.60;99.90;;;;;;4996046;28;20547;-82
2022/09/01 11:58:38;;;;;;;4.33;3.93;;;24.60;99.90;;;;;;4996056;28;20827;-82
2022/09/01 12:01:18;;;;;;;10.43;4.40;;;24.60;99.90;;;;;;4996012;28;21214;-82
2022/09/01 12:03:45;;;;;;;4.60;4.20;;;24.40;99.90;;;;;;4997208;28;20475;-82
2022/09/01 12:06:19;;;;;;;4.70;4.13;;;24.50;99.90;;;;;;4996759;28;21278;-82
2022/09/01 12:08:55;;;;;;;4.90;4.40;;;24.70;99.90;;;;;;4996774;28;20463;-82
2022/09/01 12:11:26;;;;;;;4.80;4.40;;;25.00;99.90;;;;;;4997166;28;21010;-82
2022/09/01 12:13:59;;;;;;;4.20;3.73;;;25.30;99.90;;;;;;4997702;28;20487;-82
2022/09/01 12:16:26;;;;;;;4.20;3.80;;;25.80;99.90;;;;;;4995683;28;20506;-82
2022/09/01 12:18:55;;;;;;;4.27;3.87;;;26.10;99.90;;;;;;4996176;28;20474;-82
2022/09/01 12:21:25;;;;;;;5.00;4.50;;;25.90;99.90;;;;;;4997720;28;21026;-82
2022/09/01 12:23:54;;;;;;;4.93;4.47;;;25.80;99.90;;;;;;4997073;28;20491;-83
2022/09/01 12:26:25;;;;;;;5.40;3.93;;;25.80;99.90;;;;;;4996434;28;20570;-82
2022/09/01 12:28:53;;;;;;;4.93;4.20;;;25.70;99.90;;;;;;4998296;28;20470;-83
2022/09/01 12:31:22;;;;;;;4.30;4.00;;;25.70;99.90;;;;;;4998241;28;20528;-80
2022/09/01 12:33:49;;;;;;;4.40;4.00;;;25.70;99.90;;;;;;4999300;28;20463;-80
2022/09/01 12:36:27;;;;;;;4.97;4.30;;;25.50;99.90;;;;;;5003870;28;20531;-79
2022/09/01 12:38:57;;;;;;;4.23;3.83;;;25.40;99.90;;;;;;5009811;28;20661;-80
2022/09/01 12:41:33;;;;;;;4.27;3.87;;;25.40;99.90;;;;;;5009509;28;20502;-79
2022/09/01 12:44:28;;;;;;;4.67;4.27;;;25.40;99.90;;;;;;5010076;28;20482;-80
2022/09/01 12:46:56;;;;;;;4.10;3.70;;;25.50;99.90;;;;;;5010708;28;20439;-80
2022/09/01 12:49:24;;;;;;;4.80;4.40;;;25.60;99.90;;;;;;4997665;28;20452;-80
2022/09/01 12:52:20;;;;;;;9.13;4.03;;;25.50;99.90;;;;;;4994816;28;20472;-80
2022/09/01 12:54:52;;;;;;;4.53;4.00;;;25.80;99.90;;;;;;4995625;28;20455;-80
2022/09/01 12:57:27;;;;;;;4.23;3.63;;;26.10;99.90;;;;;;4994551;28;20476;-80
2022/09/01 13:00:18;;;;;;;4.30;3.50;;;26.50;99.90;;;;;;4994199;28;20463;-80
2022/09/01 13:02:48;;;;;;;3.43;3.13;;;26.80;99.90;;;;;;4995087;28;20599;-80
2022/09/01 13:05:20;;;;;;;3.60;3.30;;;27.00;99.90;;;;;;4992518;28;20547;-80
2022/09/01 13:07:47;;;;;;;4.00;3.60;;;26.90;99.90;;;;;;4994698;28;20455;-80
2022/09/01 13:10:15;;;;;;;3.40;3.10;;;26.80;99.90;;;;;;4993199;28;20926;-80
2022/09/01 13:12:43;;;;;;;7.90;3.50;;;26.80;99.90;;;;;;4993489;28;20547;-80
2022/09/01 13:15:10;;;;;;;7.27;3.17;;;26.90;99.90;;;;;;4992695;28;20972;-80
2022/09/01 13:17:37;;;;;;;4.50;3.00;;;26.80;99.90;;;;;;4993070;28;20972;-80
2022/09/01 13:20:05;;;;;;;3.33;3.03;;;26.80;99.90;;;;;;4993015;28;20463;-80
2022/09/01 13:22:32;;;;;;;3.03;2.73;;;26.80;99.90;;;;;;4993350;28;21007;-80
2022/09/01 13:24:59;;;;;;;4.53;2.70;;;26.80;99.90;;;;;;4993047;28;20472;-80
2022/09/01 13:27:27;;;;;;;3.33;3.03;;;26.80;99.90;;;;;;4993552;28;20482;-80
2022/09/01 13:29:54;;;;;;;3.80;3.23;;;26.60;99.90;;;;;;4993424;28;20459;-81
2022/09/01 13:32:23;;;;;;;3.63;3.33;;;26.50;99.90;;;;;;4992579;28;20479;-80
2022/09/01 13:34:51;;;;;;;4.17;3.07;;;26.40;99.90;;;;;;4990996;28;20456;-81
2022/09/01 13:37:19;;;;;;;3.17;2.87;;;26.40;99.90;;;;;;4993323;28;20459;-81
2022/09/01 13:39:47;;;;;;;4.73;3.30;;;26.40;99.90;;;;;;4993670;28;20869;-81
2022/09/01 13:42:14;;;;;;;4.97;3.80;;;26.40;99.90;;;;;;4993867;28;20496;-81
2022/09/01 13:44:43;;;;;;;3.40;3.10;;;26.50;99.90;;;;;;4993425;28;20831;-81
2022/09/01 13:47:09;;;;;;;3.80;3.23;;;26.50;99.90;;;;;;4993504;28;20467;-81
2022/09/01 13:49:36;;;;;;;4.60;3.27;;;26.50;99.90;;;;;;4993428;28;20475;-81
2022/09/01 13:52:03;;;;;;;3.33;2.93;;;26.60;99.90;;;;;;4993512;28;20475;-81
2022/09/01 13:54:30;;;;;;;3.67;3.30;;;26.80;99.90;;;;;;4993017;28;20503;-81
2022/09/01 13:56:57;;;;;;;3.30;3.00;;;26.80;99.90;;;;;;4993605;28;20470;-81
2022/09/01 13:59:24;;;;;;;3.87;3.47;;;26.80;99.90;;;;;;4993556;28;20475;-81
2022/09/01 14:01:52;;;;;;;5.23;3.27;;;26.80;99.90;;;;;;4992319;28;21027;-81
2022/09/01 14:04:21;;;;;;;3.37;3.10;;;26.70;99.90;;;;;;4992362;28;20464;-81
2022/09/01 14:06:48;;;;;;;5.10;2.90;;;26.80;99.90;;;;;;4992564;28;20833;-81
2022/09/01 14:09:16;;;;;;;3.00;2.70;;;26.80;99.90;;;;;;4993195;28;20463;-80
2022/09/01 14:11:43;;;;;;;3.33;3.03;;;26.80;99.90;;;;;;4993474;28;20543;-80
2022/09/01 14:14:09;;;;;;;3.40;2.50;;;26.80;99.90;;;;;;4992227;28;20978;-81
2022/09/01 14:16:36;;;;;;;3.90;3.00;;;26.80;99.90;;;;;;4993107;28;20894;-81
2022/09/01 14:19:05;;;;;;;3.90;3.00;;;26.80;99.90;;;;;;4993668;28;20460;-81
2022/09/01 14:21:32;;;;;;;3.20;2.90;;;26.70;99.90;;;;;;4993152;28;20491;-81
2022/09/01 14:23:59;;;;;;;6.57;2.70;;;26.80;99.90;;;;;;4993399;28;20460;-81
2022/09/01 14:26:26;;;;;;;4.70;3.23;;;26.90;99.90;;;;;;4992398;28;20545;-81
2022/09/01 14:28:53;;;;;;;4.17;2.90;;;26.90;99.90;;;;;;4994444;28;20467;-81
2022/09/01 14:31:20;;;;;;;3.23;2.93;;;26.90;99.90;;;;;;4996293;28;20486;-81
2022/09/01 14:33:48;;;;;;;4.10;3.00;;;26.90;99.90;;;;;;4997127;28;20466;-81
2022/09/01 14:36:22;;;;;;;2.50;2.30;;;26.80;99.90;;;;;;4995595;28;20462;-81
2022/09/01 14:38:50;;;;;;;3.70;3.30;;;26.70;99.90;;;;;;4996653;28;20462;-81
2022/09/01 14:41:22;;;;;;;2.77;2.57;;;26.70;99.90;;;;;;4996952;28;20480;-81
2022/09/01 14:43:49;;;;;;;4.17;3.37;;;26.70;99.90;;;;;;4996447;28;20463;-81
2022/09/01 14:46:18;;;;;;;4.30;3.40;;;26.50;99.90;;;;;;4996812;28;20460;-81
2022/09/01 14:48:46;;;;;;;4.20;3.00;;;26.40;99.90;;;;;;4996507;28;20527;-81
2022/09/01 14:51:23;;;;;;;3.87;3.13;;;26.10;99.90;;;;;;4996372;28;20538;-81
2022/09/01 14:53:51;;;;;;;6.47;3.03;;;25.90;99.90;;;;;;4996011;28;20482;-81
2022/09/01 14:56:18;;;;;;;5.57;3.50;;;25.60;99.90;;;;;;4994335;28;20462;-81
2022/09/01 14:58:46;;;;;;;3.20;2.90;;;25.40;99.90;;;;;;4995913;28;20464;-81
2022/09/01 15:01:14;;;;;;;3.90;3.20;;;25.30;99.90;;;;;;4995570;28;20495;-81
2022/09/01 15:03:42;;;;;;;4.30;3.50;;;25.20;99.90;;;;;;4995844;28;20459;-81
2022/09/01 15:06:12;;;;;;;3.67;3.37;;;25.10;99.90;;;;;;4994578;28;20440;-81
2022/09/01 15:08:41;;;;;;;3.73;3.40;;;25.00;99.90;;;;;;4996069;28;20482;-81
2022/09/01 15:11:10;;;;;;;4.17;3.77;;;25.00;99.90;;;;;;4995776;28;20471;-81
2022/09/01 15:13:37;;;;;;;3.40;3.10;;;24.90;99.90;;;;;;4995551;28;20455;-80
2022/09/01 15:16:04;;;;;;;4.20;3.73;;;24.80;99.90;;;;;;4994358;28;20458;-80
2022/09/01 15:18:34;;;;;;;3.60;3.30;;;24.70;99.90;;;;;;4995017;28;20502;-81
2022/09/01 15:21:01;;;;;;;4.20;3.80;;;24.60;99.90;;;;;;4995318;28;20483;-81
2022/09/01 15:23:30;;;;;;;5.33;3.80;;;24.60;99.90;;;;;;4994533;28;21039;-80
2022/09/01 15:25:58;;;;;;;4.70;4.30;;;24.60;99.90;;;;;;4994530;28;20466;-81
2022/09/01 15:28:26;;;;;;;4.63;3.97;;;24.50;99.90;;;;;;4994743;28;20478;-81
2022/09/01 15:30:55;;;;;;;4.63;4.20;;;24.50;99.90;;;;;;4994958;28;20482;-80
2022/09/01 15:33:22;;;;;;;4.53;4.13;;;24.40;99.90;;;;;;4994981;28;20459;-80
2022/09/01 15:35:49;;;;;;;4.30;3.47;;;24.40;99.90;;;;;;4992972;28;20456;-81
2022/09/01 15:38:16;;;;;;;4.40;3.87;;;24.30;99.90;;;;;;4994493;28;20462;-81
2022/09/01 15:40:44;;;;;;;4.47;4.07;;;24.20;99.90;;;;;;4994377;28;20490;-80
2022/09/01 15:43:12;;;;;;;4.50;3.50;;;24.20;99.90;;;;;;4993663;28;20503;-80
2022/09/01 15:45:40;;;;;;;4.27;3.60;;;24.10;99.90;;;;;;4993350;28;20460;-80
2022/09/01 15:48:07;;;;;;;4.60;4.20;;;24.00;99.90;;;;;;4995091;28;20468;-80
2022/09/01 15:50:34;;;;;;;3.83;3.53;;;23.90;99.90;;;;;;4994534;28;20470;-80
2022/09/01 15:53:07;;;;;;;5.10;3.60;;;23.90;99.90;;;;;;4995110;28;20463;-80
2022/09/01 15:55:40;;;;;;;8.87;3.20;;;23.90;99.90;;;;;;4994855;28;20468;-80
2022/09/01 15:58:07;;;;;;;4.13;3.73;;;23.90;99.90;;;;;;4995438;28;20447;-80
2022/09/01 16:00:36;;;;;;;3.97;3.60;;;23.90;99.90;;;;;;4994422;28;20523;-80
2022/09/01 16:03:03;;;;;;;3.70;3.40;;;24.00;99.90;;;;;;4994766;28;20501;-81
2022/09/01 16:05:31;;;;;;;5.10;3.30;;;24.10;99.90;;;;;;4993841;28;20458;-80
2022/09/01 16:08:00;;;;;;;25.77;4.20;;;24.20;99.90;;;;;;4993931;28;20465;-80
2022/09/01 16:10:27;;;;;;;11.80;3.40;;;24.40;99.90;;;;;;4993954;28;20472;-81
2022/09/01 16:12:55;;;;;;;5.37;3.33;;;24.50;99.90;;;;;;4994248;28;20491;-81
2022/09/01 16:15:25;;;;;;;3.13;2.83;;;24.70;99.90;;;;;;4993608;28;20459;-81
2022/09/01 16:18:03;;;;;;;5.07;3.23;;;24.90;99.90;;;;;;4994568;28;20460;-81
2022/09/01 16:20:36;;;;;;;4.63;3.50;;;25.00;99.90;;;;;;4994077;28;20671;-80
2022/09/01 16:23:12;;;;;;;4.77;3.27;;;25.10;99.90;;;;;;4993764;28;20505;-80
2022/09/01 16:25:40;;;;;;;5.27;3.70;;;25.10;99.90;;;;;;4992617;28;20455;-80
2022/09/01 16:28:20;;;;;;;4.20;3.57;;;25.20;99.90;;;;;;4992268;28;20455;-80
2022/09/01 16:30:49;;;;;;;4.27;3.70;;;25.20;99.90;;;;;;4992139;28;20480;-80
2022/09/01 16:33:19;;;;;;;3.70;3.30;;;25.20;99.90;;;;;;4992028;28;20517;-80
2022/09/01 16:35:59;;;;;;;3.80;3.50;;;25.20;99.90;;;;;;4990444;28;20468;-80
2022/09/01 16:38:36;;;;;;;4.27;3.50;;;25.10;99.90;;;;;;4992791;28;20563;-80
2022/09/01 16:41:14;;;;;;;3.47;3.17;;;25.10;99.90;;;;;;4989980;28;20474;-80
2022/09/01 16:43:48;;;;;;;4.05;3.65;;;25.00;99.90;;;;;;4992986;28;20430;-81
2022/09/01 16:46:25;;;;;;;3.87;3.47;;;25.00;99.90;;;;;;4992886;28;20239;-80
2022/09/01 16:49:00;;;;;;;4.23;3.87;;;25.00;99.90;;;;;;4993456;28;20440;-81
2022/09/01 16:51:36;;;;;;;4.87;4.37;;;24.80;99.90;;;;;;4992347;28;20475;-80
2022/09/01 16:54:13;;;;;;;6.03;3.80;;;24.70;99.90;;;;;;4992017;28;20443;-80
2022/09/01 16:56:48;;;;;;;4.30;3.90;;;24.50;99.90;;;;;;4992586;28;20470;-80
2022/09/01 16:59:24;;;;;;;7.63;4.23;;;24.30;99.90;;;;;;4992431;28;20440;-80